Time;durP1;ratioP1;P1;durP2;ratioP2;P2;SDS_P1;SDS_P2;PMS_P1;PMS_P2;Temp;Humidity;BMP_temperature;BMP_pressure;BME280_temperature;BME280_humidity;BME280_pressure;Samples;Min_cycle;Max_cycle;Signal;HPM_P1;HPM_P2
2022/07/06 00:00:57;;;;;;;;;4.00;3.50;;;;;23.23;39.17;102071.72;2072795;28;47629;-56
2022/07/06 00:01:58;;;;;;;;;3.25;3.25;;;;;23.21;39.53;102069.09;2085529;28;47889;-54
2022/07/06 00:02:58;;;;;;;;;3.00;3.00;;;;;23.19;38.99;102063.78;2086699;28;47606;-56
2022/07/06 00:04:01;;;;;;;;;1.00;1.00;;;;;23.17;39.35;102068.41;2084619;27;47951;-55
2022/07/06 00:05:01;;;;;;;;;2.00;2.00;;;;;23.16;39.33;102066.66;2082421;28;47355;-55
2022/07/06 00:06:02;;;;;;;;;4.75;4.00;;;;;23.15;39.35;102072.16;2075897;28;47332;-53
2022/07/06 00:07:02;;;;;;;;;4.25;3.00;;;;;23.14;39.69;102074.00;2063822;28;48337;-55
2022/07/06 00:08:03;;;;;;;;;3.00;3.00;;;;;23.12;39.79;102069.59;2071189;28;47767;-56
2022/07/06 00:09:04;;;;;;;;;2.50;2.50;;;;;23.12;39.33;102075.91;2087872;28;47714;-54
2022/07/06 00:10:05;;;;;;;;;2.00;2.00;;;;;23.10;39.59;102077.78;2087774;28;47907;-56
2022/07/06 00:11:05;;;;;;;;;4.40;4.40;;;;;23.09;39.67;102076.03;2081696;28;47638;-53
2022/07/06 00:12:06;;;;;;;;;2.75;2.75;;;;;23.10;39.59;102076.91;2084171;28;47797;-56
2022/07/06 00:13:06;;;;;;;;;3.00;3.00;;;;;23.09;39.42;102081.47;2085614;28;47447;-53
2022/07/06 00:14:07;;;;;;;;;3.50;3.50;;;;;;;;2083662;28;47994;-55
2022/07/06 00:15:07;;;;;;;;;6.00;3.00;;;;;23.07;39.37;102075.25;2086635;28;47888;-59
2022/07/06 00:16:08;;;;;;;;;4.00;3.75;;;;;23.07;39.84;102075.25;2084685;28;47359;-56
2022/07/06 00:17:08;;;;;;;;;3.00;3.00;;;;;23.07;39.61;102068.97;2083410;28;47520;-55
2022/07/06 00:18:08;;;;;;;;;4.00;4.00;;;;;23.07;40.05;102063.56;2085095;28;47572;-55
2022/07/06 00:19:09;;;;;;;;;3.25;3.00;;;;;23.06;39.96;102064.50;2083672;28;47555;-53
2022/07/06 00:20:09;;;;;;;;;3.00;3.00;;;;;23.05;39.91;102068.19;2080995;28;48244;-57
2022/07/06 00:21:10;;;;;;;;;2.75;2.75;;;;;23.04;39.81;102072.72;2086914;28;47410;-54
2022/07/06 00:22:11;;;;;;;;;3.25;2.00;;;;;23.03;39.58;102068.25;2083744;28;47392;-55
2022/07/06 00:23:12;;;;;;;;;2.75;2.75;;;;;23.01;40.00;102072.88;2085599;28;47846;-55
2022/07/06 00:24:12;;;;;;;;;2.75;2.25;;;;;23.00;39.98;102071.13;2085599;28;47478;-54
2022/07/06 00:25:12;;;;;;;;;1.00;1.00;;;;;23.00;40.06;102073.84;2086692;28;45953;-55
2022/07/06 00:26:13;;;;;;;;;4.00;3.00;;;;;23.00;39.75;102067.56;2083885;28;47516;-56
2022/07/06 00:27:13;;;;;;;;;3.25;3.25;;;;;22.98;40.05;102067.59;2088653;28;47804;-57
2022/07/06 00:28:14;;;;;;;;;3.25;2.75;;;;;22.98;40.06;102073.03;2082223;28;47692;-55
2022/07/06 00:29:15;;;;;;;;;2.60;2.00;;;;;22.97;40.35;102060.44;2086548;28;47807;-55
2022/07/06 00:30:15;;;;;;;;;3.25;2.00;;;;;22.97;40.28;102060.44;2066435;28;47423;-54
2022/07/06 00:31:15;;;;;;;;;2.75;2.75;;;;;22.97;40.24;102063.16;2067968;28;47250;-54
2022/07/06 00:32:16;;;;;;;;;2.50;2.50;;;;;22.97;40.21;102064.97;2079702;28;47723;-57
2022/07/06 00:33:16;;;;;;;;;3.50;3.50;;;;;22.96;40.04;102065.94;2090676;28;47466;-55
2022/07/06 00:34:17;;;;;;;;;3.50;3.50;;;;;22.95;40.35;102067.78;2082837;28;47581;-56
2022/07/06 00:35:17;;;;;;;;;3.00;3.00;;;;;22.96;40.39;102068.66;2086529;28;47349;-57
2022/07/06 00:36:17;;;;;;;;;2.00;2.00;;;;;22.96;40.52;102068.66;2084190;28;47594;-57
2022/07/06 00:37:18;;;;;;;;;3.50;2.00;;;;;22.95;40.31;102069.59;2088674;28;47432;-56
2022/07/06 00:38:18;;;;;;;;;2.00;2.00;;;;;22.95;40.49;102067.78;2083915;28;47385;-53
2022/07/06 00:39:19;;;;;;;;;2.75;2.75;;;;;22.95;40.30;102067.78;2090403;28;47209;-56
2022/07/06 00:40:19;;;;;;;;;4.00;3.75;;;;;22.93;40.54;102061.56;2082462;28;45802;-55
2022/07/06 00:41:20;;;;;;;;;2.75;2.75;;;;;22.94;40.37;102066.03;2087923;28;47051;-57
2022/07/06 00:42:20;;;;;;;;;2.75;2.75;;;;;22.93;40.76;102066.97;2084915;28;47623;-52
2022/07/06 00:43:20;;;;;;;;;3.25;2.25;;;;;22.92;40.75;102065.22;2090898;28;47512;-55
2022/07/06 00:44:21;;;;;;;;;2.50;2.50;;;;;22.91;40.85;102060.78;2083217;28;48181;-53
2022/07/06 00:45:22;;;;;;;;;3.00;2.00;;;;;22.90;40.40;102062.59;2091399;28;48174;-55
2022/07/06 00:46:27;;;;;;;;;3.20;3.00;;;;;22.88;40.29;102061.81;2083383;28;47931;-56
2022/07/06 00:47:27;;;;;;;;;1.40;1.40;;;;;22.88;40.48;102067.22;2086381;28;47746;-54
2022/07/06 00:48:28;;;;;;;;;2.75;2.75;;;;;22.87;40.88;102067.31;2089659;28;47912;-56
2022/07/06 00:50:47;;;;;;;;;3.40;2.60;;;;;22.85;40.72;102067.38;2100165;27;47618;-51
2022/07/06 00:51:48;;;;;;;;;3.00;3.00;;;;;22.84;40.73;102067.44;2098551;27;47214;-54
2022/07/06 00:52:49;;;;;;;;;2.00;2.00;;;;;22.84;40.88;102064.75;2103532;27;47838;-55
2022/07/06 00:53:50;;;;;;;;;2.20;2.20;;;;;22.82;40.72;102058.50;2100546;28;47584;-56
2022/07/06 00:54:51;;;;;;;;;2.80;2.80;;;;;22.81;40.94;102065.75;2102210;27;47342;-55
2022/07/06 00:55:51;;;;;;;;;2.00;2.00;;;;;22.81;40.69;102067.59;2098569;28;47581;-49
2022/07/06 00:56:52;;;;;;;;;4.50;4.00;;;;;22.80;40.74;102057.72;2101635;27;47167;-53
2022/07/06 00:57:54;;;;;;;;;3.50;3.00;;;;;22.78;41.13;102068.63;2100315;28;47587;-55
2022/07/06 00:58:55;;;;;;;;;3.20;3.20;;;;;22.78;40.77;102070.44;2101385;28;47288;-56
2022/07/06 00:59:56;;;;;;;;;5.00;5.00;;;;;22.77;40.79;102068.72;2101136;28;47551;-54
2022/07/06 01:00:56;;;;;;;;;3.00;2.40;;;;;22.75;40.99;102070.63;2103337;27;47542;-52
2022/07/06 01:01:57;;;;;;;;;2.25;2.25;;;;;22.75;41.26;102070.63;2100735;27;48221;-54
2022/07/06 01:02:58;;;;;;;;;5.00;3.00;;;;;22.73;41.19;102069.78;2101862;28;48096;-54
2022/07/06 01:03:58;;;;;;;;;2.75;2.75;;;;;22.72;41.17;102065.34;2101610;27;47452;-52
2022/07/06 01:04:59;;;;;;;;;3.00;3.00;;;;;22.71;41.38;102071.69;2103514;27;46670;-55
2022/07/06 01:06:00;;;;;;;;;1.00;1.00;;;;;22.70;41.41;102062.72;2099441;28;47157;-55
2022/07/06 01:07:01;;;;;;;;;2.00;2.00;;;;;22.71;41.11;102063.59;2102694;28;47427;-52
2022/07/06 01:08:02;;;;;;;;;3.20;3.20;;;;;22.71;41.07;102063.59;2101621;27;47346;-55
2022/07/06 01:09:05;;;;;;;;;2.00;2.00;;;;;22.71;41.23;102066.28;2066863;28;47532;-54
2022/07/06 01:10:07;;;;;;;;;0.20;0.20;;;;;22.70;41.23;102060.00;2068622;28;46223;-50
2022/07/06 01:11:07;;;;;;;;;2.40;2.40;;;;;22.71;41.42;102069.00;2103752;27;47591;-56
2022/07/06 01:12:08;;;;;;;;;1.75;1.75;;;;;22.70;41.44;102068.13;2102209;27;48147;-56
2022/07/06 01:13:09;;;;;;;;;2.00;2.00;;;;;22.70;41.39;102070.84;2103857;28;47660;-54
2022/07/06 01:14:12;;;;;;;;;2.00;2.00;;;;;22.71;41.85;102069.00;2100963;27;47522;-54
2022/07/06 01:15:15;;;;;;;;;2.60;2.60;;;;;22.69;41.36;102060.97;2101560;28;48103;-55
2022/07/06 01:16:17;;;;;;;;;1.60;1.60;;;;;22.70;41.68;102068.13;2097215;27;46591;-55
2022/07/06 01:17:18;;;;;;;;;3.00;3.00;;;;;22.70;41.51;102064.53;2103819;28;47383;-53
2022/07/06 01:18:19;;;;;;;;;1.40;1.20;;;;;22.68;41.38;102061.03;2100708;27;47565;-56
2022/07/06 01:19:20;;;;;;;;;2.50;2.50;;;;;22.68;41.79;102069.16;2103928;28;47664;-54
2022/07/06 01:20:25;;;;;;;;;4.00;2.75;;;;;22.66;41.30;102074.66;2097883;27;47778;-54
2022/07/06 01:21:25;;;;;;;;;3.80;3.00;;;;;22.66;41.61;102077.38;2102464;27;47814;-54
2022/07/06 01:22:26;;;;;;;;;2.75;2.75;;;;;22.65;41.27;102078.31;2099681;27;46831;-54
2022/07/06 01:23:26;;;;;;;;;3.00;3.00;;;;;22.65;41.66;102085.56;2104356;27;47926;-54
2022/07/06 01:24:27;;;;;;;;;5.50;5.50;;;;;22.64;41.47;102081.97;2097694;27;48093;-55
2022/07/06 01:25:27;;;;;;;;;2.50;2.50;;;;;22.65;41.56;102082.84;2103755;27;47727;-51
2022/07/06 01:26:28;;;;;;;;;2.50;2.50;;;;;22.63;41.84;102088.34;2098271;27;47353;-56
2022/07/06 01:27:29;;;;;;;;;1.25;1.25;;;;;22.62;41.87;102075.78;2098031;28;47514;-55
2022/07/06 01:28:30;;;;;;;;;4.00;4.00;;;;;22.60;41.66;102077.66;2098692;27;48119;-55
2022/07/06 01:29:31;;;;;;;;;3.75;3.75;;;;;22.59;41.54;102079.50;2102665;27;46887;-52
2022/07/06 01:30:32;;;;;;;;;5.00;4.80;;;;;22.57;41.67;102078.69;2101194;28;48225;-56
2022/07/06 01:31:32;;;;;;;;;2.75;2.75;;;;;22.56;41.79;102076.06;2102209;27;48051;-56
2022/07/06 01:32:33;;;;;;;;;4.25;4.25;;;;;22.54;41.77;102078.84;2099165;28;47791;-56
2022/07/06 01:33:34;;;;;;;;;2.25;2.25;;;;;22.53;41.94;102071.69;2101770;27;47673;-55
2022/07/06 01:34:34;;;;;;;;;3.00;3.00;;;;;22.52;41.99;102064.53;2099757;28;47347;-56
2022/07/06 01:35:37;;;;;;;;;2.33;2.00;;;;;22.53;42.10;102071.69;2101996;27;47365;-57
2022/07/06 01:36:37;;;;;;;;;4.25;4.25;;;;;22.53;41.90;102071.69;2099825;28;48115;-56
2022/07/06 01:37:39;;;;;;;;;2.75;2.75;;;;;22.53;42.16;102065.41;2101422;27;47666;-56
2022/07/06 01:38:46;;;;;;;;;4.00;4.00;;;;;22.53;41.98;102063.56;2102933;28;48597;-55
2022/07/06 01:39:46;;;;;;;;;4.00;3.00;;;;;22.52;41.75;102069.94;2100986;27;47526;-54
2022/07/06 01:40:47;;;;;;;;;3.00;3.00;;;;;22.53;41.76;102070.81;2100511;28;47704;-52
2022/07/06 01:41:47;;;;;;;;;4.75;4.75;;;;;22.51;42.33;102068.19;2100798;27;47633;-54
2022/07/06 01:42:48;;;;;;;;;3.25;2.50;;;;;22.53;42.51;102068.13;2102121;27;47379;-55
2022/07/06 01:43:48;;;;;;;;;3.00;3.00;;;;;22.54;42.08;102075.28;2100208;27;47884;-51
2022/07/06 01:44:49;;;;;;;;;3.00;3.00;;;;;22.54;41.67;102070.75;2103457;28;47839;-53
2022/07/06 01:45:49;;;;;;;;;3.25;3.25;;;;;22.53;41.96;102069.00;2101480;27;47460;-52
2022/07/06 01:46:49;;;;;;;;;2.75;2.75;;;;;22.55;42.05;102074.31;2103057;27;47445;-54
2022/07/06 01:47:50;;;;;;;;;2.00;2.00;;;;;22.53;41.90;102071.69;2100552;27;47444;-55
2022/07/06 01:48:50;;;;;;;;;4.33;4.00;;;;;22.53;42.19;102074.41;2091664;28;47545;-52
2022/07/06 01:49:51;;;;;;;;;4.00;3.00;;;;;22.53;42.16;102070.81;2089440;28;47318;-54
2022/07/06 01:50:52;;;;;;;;;4.00;3.33;;;;;22.52;42.06;102071.78;2101999;28;46426;-54
2022/07/06 01:51:52;;;;;;;;;2.50;2.50;;;;;22.53;42.03;102076.22;2101113;27;47681;-53
2022/07/06 01:52:52;;;;;;;;;3.50;2.00;;;;;22.53;42.18;102073.53;2102724;27;47761;-55
2022/07/06 01:53:53;;;;;;;;;4.25;3.25;;;;;22.53;42.24;102077.09;2099913;27;47641;-55
2022/07/06 01:54:55;;;;;;;;;4.00;4.00;;;;;22.51;42.17;102068.19;2103504;27;47992;-51
2022/07/06 01:55:56;;;;;;;;;2.00;2.00;;;;;22.52;42.36;102077.19;2098901;27;47653;-56
2022/07/06 01:56:56;;;;;;;;;3.00;3.00;;;;;22.50;42.29;102066.44;2103726;27;47516;-54
2022/07/06 01:57:56;;;;;;;;;3.00;3.00;;;;;22.50;42.30;102070.97;2100595;27;48173;-54
2022/07/06 01:58:57;;;;;;;;;5.00;4.00;;;;;22.51;42.18;102070.03;2104941;27;47391;-57
2022/07/06 01:59:57;;;;;;;;;2.00;2.00;;;;;22.52;41.90;102074.47;2087381;28;47027;-53
2022/07/06 02:00:58;;;;;;;;;4.00;3.00;;;;;22.51;42.26;102067.31;2083809;28;47653;-55
2022/07/06 02:01:58;;;;;;;;;4.00;4.00;;;;;22.50;42.34;102070.97;2100693;27;47516;-55
2022/07/06 02:02:58;;;;;;;;;4.50;4.50;;;;;22.46;41.92;102064.81;2103960;28;47542;-52
2022/07/06 02:03:59;;;;;;;;;3.25;3.25;;;;;22.46;42.25;102064.81;2099300;27;47420;-56
2022/07/06 02:04:59;;;;;;;;;5.75;5.75;;;;;22.45;42.06;102064.91;2101869;27;47586;-54
2022/07/06 02:06:00;;;;;;;;;3.00;3.00;;;;;22.44;42.38;102066.72;2100595;27;47727;-55
2022/07/06 02:07:01;;;;;;;;;4.00;4.00;;;;;22.43;42.23;102072.22;2101490;28;47641;-54
2022/07/06 02:08:02;;;;;;;;;3.80;3.20;;;;;22.43;42.18;102072.22;2097741;28;47880;-54
2022/07/06 02:09:02;;;;;;;;;5.25;5.25;;;;;22.41;42.34;102066.91;2093422;28;47214;-54
2022/07/06 02:10:03;;;;;;;;;4.00;4.00;;;;;22.40;41.99;102070.56;2092416;28;47673;-50
2022/07/06 02:11:05;;;;;;;;;3.33;3.33;;;;;22.38;42.39;102072.47;2102849;28;47939;-53
2022/07/06 02:12:05;;;;;;;;;6.20;3.80;;;;;22.38;42.01;102072.47;2098072;27;47591;-52
2022/07/06 02:13:06;;;;;;;;;3.00;3.00;;;;;22.39;42.22;102071.50;2100044;28;47397;-55
2022/07/06 02:14:06;;;;;;;;;6.50;5.25;;;;;22.37;42.12;102068.00;2098067;27;47818;-51
2022/07/06 02:15:07;;;;;;;;;3.67;3.67;;;;;22.37;42.58;102064.44;2102926;27;47616;-54
2022/07/06 02:16:08;;;;;;;;;5.60;5.60;;;;;22.36;42.63;102063.56;2100500;27;47805;-53
2022/07/06 02:17:08;;;;;;;;;5.67;5.67;;;;;22.35;42.42;102064.47;2104016;28;45691;-54
2022/07/06 02:18:09;;;;;;;;;4.25;4.25;;;;;22.36;42.63;102073.47;2097276;27;47674;-53
2022/07/06 02:19:09;;;;;;;;;6.00;6.00;;;;;22.35;42.38;102056.38;2099464;28;47336;-54
2022/07/06 02:20:10;;;;;;;;;5.33;5.33;;;;;22.34;42.20;102060.03;2100431;27;47428;-53
2022/07/06 02:21:10;;;;;;;;;5.75;4.75;;;;;22.34;42.67;102060.03;2093432;28;47698;-55
2022/07/06 02:22:10;;;;;;;;;4.75;4.75;;;;;22.35;42.48;102069.00;2093331;28;47515;-53
2022/07/06 02:23:11;;;;;;;;;5.50;5.50;;;;;22.33;42.38;102060.97;2103412;27;47428;-54
2022/07/06 02:24:11;;;;;;;;;5.25;5.00;;;;;22.33;42.73;102060.97;2098291;27;48031;-52
2022/07/06 02:25:12;;;;;;;;;5.25;5.25;;;;;22.31;42.50;102063.75;2103562;28;46344;-55
2022/07/06 02:26:12;;;;;;;;;6.50;6.50;;;;;22.30;42.32;102059.31;2100649;27;47326;-55
2022/07/06 02:27:13;;;;;;;;;7.75;7.75;;;;;22.30;42.33;102061.13;2097356;27;47302;-53
2022/07/06 02:28:13;;;;;;;;;6.50;6.00;;;;;22.26;42.72;102055.00;2097513;27;47540;-56
2022/07/06 02:29:13;;;;;;;;;4.00;4.00;;;;;22.25;43.02;102057.81;2105487;27;47693;-55
2022/07/06 02:30:14;;;;;;;;;5.25;4.50;;;;;22.23;42.66;102057.88;2090140;28;48118;-52
2022/07/06 02:31:14;;;;;;;;;5.00;5.00;;;;;22.23;42.66;102056.97;2095994;28;47095;-55
2022/07/06 02:32:15;;;;;;;;;5.75;5.00;;;;;22.22;42.87;102056.09;2102300;27;47572;-55
2022/07/06 02:33:15;;;;;;;;;4.75;4.25;;;;;22.22;42.56;102052.50;2104852;27;47521;-55
2022/07/06 02:34:15;;;;;;;;;5.00;5.00;;;;;22.22;42.66;102047.97;2098571;28;48007;-56
2022/07/06 02:35:16;;;;;;;;;3.00;3.00;;;;;22.22;42.79;102047.09;2104830;27;47626;-55
2022/07/06 02:36:16;;;;;;;;;5.25;5.25;;;;;22.22;42.83;102050.69;2099805;27;47360;-51
2022/07/06 02:37:17;;;;;;;;;4.75;4.75;;;;;22.22;42.85;102050.69;2104892;28;47854;-55
2022/07/06 02:38:17;;;;;;;;;6.50;6.50;;;;;22.22;43.08;102045.28;2101345;27;47496;-55
2022/07/06 02:39:17;;;;;;;;;6.25;6.25;;;;;22.22;42.66;102041.69;2105083;27;47489;-58
2022/07/06 02:40:18;;;;;;;;;6.00;6.00;;;;;22.22;42.83;102039.88;2101428;27;47668;-55
2022/07/06 02:41:18;;;;;;;;;5.25;4.50;;;;;22.22;43.08;102039.88;2105109;27;47818;-55
2022/07/06 02:42:19;;;;;;;;;5.00;5.00;;;;;22.22;42.95;102039.88;2100618;27;47223;-56
2022/07/06 02:43:19;;;;;;;;;5.75;5.75;;;;;22.21;42.57;102038.13;2101614;27;47702;-53
2022/07/06 02:44:19;;;;;;;;;3.50;3.25;;;;;22.22;43.13;102049.81;2098949;28;47234;-55
2022/07/06 02:45:20;;;;;;;;;6.00;6.00;;;;;22.21;43.04;102040.81;2104719;27;45783;-55
2022/07/06 02:46:20;;;;;;;;;4.00;4.00;;;;;22.21;42.95;102048.06;2101815;28;47854;-54
2022/07/06 02:47:20;;;;;;;;;4.25;4.25;;;;;22.21;42.65;102046.22;2102913;27;47978;-54
2022/07/06 02:48:21;;;;;;;;;5.25;5.00;;;;;22.21;43.11;102048.94;2100500;28;47617;-54
2022/07/06 02:49:21;;;;;;;;;6.00;5.25;;;;;22.22;42.70;102052.50;2104652;27;47385;-54
2022/07/06 02:50:22;;;;;;;;;5.50;5.50;;;;;22.21;43.02;102048.06;2098812;27;48242;-51
2022/07/06 02:51:23;;;;;;;;;3.00;3.00;;;;;22.21;42.89;102051.63;2105205;27;47656;-51
2022/07/06 02:52:23;;;;;;;;;6.20;6.20;;;;;22.21;42.73;102051.63;2098252;27;47709;-54
2022/07/06 02:53:24;;;;;;;;;4.00;4.00;;;;;22.20;43.18;102051.72;2102814;28;48310;-55
2022/07/06 02:54:24;;;;;;;;;4.00;4.00;;;;;22.18;43.10;102051.81;2100417;27;47545;-52
2022/07/06 02:55:25;;;;;;;;;5.00;5.00;;;;;22.19;42.73;102058.09;2104822;27;47394;-53
2022/07/06 02:56:25;;;;;;;;;4.00;4.00;;;;;22.18;43.23;102051.81;2100211;27;47542;-50
2022/07/06 02:57:25;;;;;;;;;4.00;4.00;;;;;22.18;42.90;102062.63;2104801;28;47415;-53
2022/07/06 02:58:26;;;;;;;;;4.25;4.25;;;;;22.17;43.09;102058.16;2101630;27;47350;-54
2022/07/06 02:59:26;;;;;;;;;4.50;4.50;;;;;22.17;42.82;102058.16;2102485;28;47623;-54
2022/07/06 03:00:27;;;;;;;;;6.75;5.75;;;;;22.17;42.89;102066.28;2093073;28;47451;-54
2022/07/06 03:01:27;;;;;;;;;7.00;6.00;;;;;22.17;43.08;102062.69;2095570;28;47427;-56
2022/07/06 03:02:27;;;;;;;;;6.25;6.25;;;;;22.17;42.92;102065.41;2098716;27;47328;-55
2022/07/06 03:03:28;;;;;;;;;7.75;7.75;;;;;22.16;42.83;102072.63;2104342;28;47354;-56
2022/07/06 03:04:29;;;;;;;;;5.50;5.50;;;;;22.14;42.76;102057.44;2103032;27;47432;-55
2022/07/06 03:05:29;;;;;;;;;4.00;4.00;;;;;22.12;43.45;102064.75;2100823;27;47776;-53
2022/07/06 03:06:29;;;;;;;;;4.25;4.25;;;;;22.12;42.94;102064.75;2093748;28;48084;-54
2022/07/06 03:07:30;;;;;;;;;5.00;5.00;;;;;22.12;43.14;102070.16;2094750;28;47577;-55
2022/07/06 03:08:30;;;;;;;;;5.75;5.00;;;;;22.10;43.59;102067.50;2102092;27;46659;-53
2022/07/06 03:09:30;;;;;;;;;4.00;4.00;;;;;22.08;43.23;102069.41;2103796;27;48032;-55
2022/07/06 03:10:31;;;;;;;;;6.25;5.50;;;;;22.06;43.32;102068.63;2101952;27;47153;-53
2022/07/06 03:11:35;;;;;;;;;5.75;5.00;;;;;22.06;43.35;102070.44;2100305;27;47633;-54
2022/07/06 03:12:36;;;;;;;;;5.00;5.00;;;;;22.04;43.32;102071.38;2103658;27;47398;-55
2022/07/06 03:13:36;;;;;;;;;4.50;4.50;;;;;22.04;43.29;102063.25;2085021;28;47788;-54
2022/07/06 03:14:36;;;;;;;;;5.00;5.00;;;;;22.03;43.27;102066.91;2084866;28;47577;-55
2022/07/06 03:15:37;;;;;;;;;3.75;3.75;;;;;22.03;43.64;102060.63;2103097;27;47400;-56
2022/07/06 03:16:37;;;;;;;;;4.00;4.00;;;;;22.04;43.39;102067.78;2089528;28;47801;-55
2022/07/06 03:17:38;;;;;;;;;4.00;3.50;;;;;22.04;43.75;102070.50;2085623;28;45780;-56
2022/07/06 03:18:38;;;;;;;;;5.75;5.75;;;;;22.04;43.16;102065.97;2094677;28;48076;-55
2022/07/06 03:19:38;;;;;;;;;6.00;6.00;;;;;22.06;43.54;102067.75;2102913;27;47745;-55
2022/07/06 03:20:39;;;;;;;;;13.25;13.25;;;;;22.05;43.33;102066.84;2100688;28;47803;-54
2022/07/06 03:21:39;;;;;;;;;8.50;7.50;;;;;22.04;43.50;102070.50;2096015;28;47143;-54
2022/07/06 03:22:40;;;;;;;;;5.25;5.25;;;;;22.02;43.68;102067.88;2093511;28;47583;-52
2022/07/06 03:23:40;;;;;;;;;4.75;4.75;;;;;22.01;43.56;102068.81;2102372;27;47544;-57
2022/07/06 03:24:41;;;;;;;;;6.75;6.00;;;;;22.01;43.86;102070.66;2104159;27;47880;-57
2022/07/06 03:25:41;;;;;;;;;4.50;4.50;;;;;22.00;43.85;102068.91;2101935;27;47650;-58
2022/07/06 03:26:42;;;;;;;;;6.00;5.75;;;;;21.99;43.92;102069.84;2103605;28;47538;-57
2022/07/06 03:27:42;;;;;;;;;3.50;3.50;;;;;21.98;43.54;102071.69;2103097;27;48038;-56
2022/07/06 03:28:42;;;;;;;;;7.00;7.00;;;;;21.98;43.29;102070.81;2100370;28;47706;-56
2022/07/06 03:29:43;;;;;;;;;5.50;5.00;;;;;21.96;43.76;102073.53;2102454;27;47871;-56
2022/07/06 03:30:43;;;;;;;;;4.50;4.50;;;;;21.95;43.24;102073.63;2085642;28;47622;-55
2022/07/06 03:31:43;;;;;;;;;6.00;6.00;;;;;21.92;43.69;102071.94;2084512;28;47853;-54
2022/07/06 03:32:44;;;;;;;;;5.75;5.75;;;;;21.93;44.11;102081.81;2101148;28;47640;-52
2022/07/06 03:33:44;;;;;;;;;5.75;5.75;;;;;21.91;43.47;102072.91;2083197;28;48264;-55
2022/07/06 03:34:44;;;;;;;;;5.25;5.25;;;;;21.92;43.46;102071.06;2084154;28;47552;-56
2022/07/06 03:35:45;;;;;;;;;5.25;4.25;;;;;21.91;43.94;102081.00;2102039;27;47705;-56
2022/07/06 03:36:45;;;;;;;;;4.33;4.33;;;;;21.90;43.48;102083.78;2102658;28;47238;-55
2022/07/06 03:37:45;;;;;;;;;5.00;5.00;;;;;21.89;44.13;102076.63;2101403;27;47724;-55
2022/07/06 03:38:46;;;;;;;;;5.00;5.00;;;;;21.87;43.87;102082.13;2101426;27;47570;-54
2022/07/06 03:39:46;;;;;;;;;5.00;5.00;;;;;21.87;44.16;102079.41;2100630;28;47728;-53
2022/07/06 03:40:46;;;;;;;;;5.75;5.75;;;;;21.87;43.83;102084.81;2095039;28;47786;-56
2022/07/06 03:41:47;;;;;;;;;5.50;5.50;;;;;21.88;43.95;102080.28;2093622;28;47128;-56
2022/07/06 03:42:47;;;;;;;;;5.75;5.75;;;;;21.87;43.67;102073.13;2103374;27;46213;-56
2022/07/06 03:43:48;;;;;;;;;6.50;6.50;;;;;21.87;43.95;102082.13;2101863;28;47363;-56
2022/07/06 03:44:48;;;;;;;;;5.50;5.50;;;;;21.89;44.20;102084.75;2103635;27;47310;-54
2022/07/06 03:45:48;;;;;;;;;4.25;4.25;;;;;21.89;43.65;102084.75;2090850;28;47398;-55
2022/07/06 03:46:50;;;;;;;;;4.50;4.50;;;;;21.88;44.30;102077.59;2095282;28;48103;-55
2022/07/06 03:47:51;;;;;;;;;6.40;5.20;;;;;21.88;43.95;102080.28;2102252;27;47388;-53
2022/07/06 03:48:51;;;;;;;;;6.75;5.50;;;;;21.89;44.36;102076.63;2103979;27;47519;-52
2022/07/06 03:49:51;;;;;;;;;6.00;6.00;;;;;21.88;43.63;102081.16;2100863;28;47738;-54
2022/07/06 03:50:52;;;;;;;;;6.00;6.00;;;;;21.88;44.00;102075.75;2103932;27;48146;-55
2022/07/06 03:51:54;;;;;;;;;7.25;6.25;;;;;21.89;44.00;102079.34;2091208;28;45915;-54
2022/07/06 03:52:54;;;;;;;;;5.60;5.60;;;;;21.88;44.09;102077.59;2095054;28;47628;-55
2022/07/06 03:53:54;;;;;;;;;5.50;5.50;;;;;21.87;44.08;102081.25;2094409;28;47802;-53
2022/07/06 03:54:55;;;;;;;;;5.00;5.00;;;;;21.87;43.88;102082.13;2102420;27;47814;-56
2022/07/06 03:57:15;;;;;;;;;5.00;5.00;;;;;21.87;43.86;102082.13;2101637;27;48143;-56
2022/07/06 03:58:15;;;;;;;;;6.75;5.00;;;;;21.88;44.11;102083.00;2101835;27;47553;-55
2022/07/06 03:59:16;;;;;;;;;5.25;5.25;;;;;21.88;43.94;102083.00;2104777;27;47819;-59
2022/07/06 04:00:16;;;;;;;;;5.25;5.25;;;;;21.88;44.03;102078.47;2098606;27;47409;-55
2022/07/06 04:01:16;;;;;;;;;4.00;4.00;;;;;21.89;44.01;102079.34;2086589;28;45659;-56
2022/07/06 04:02:17;;;;;;;;;6.00;6.00;;;;;21.89;43.98;102080.22;2084714;28;47702;-53
2022/07/06 04:03:18;;;;;;;;;6.00;6.00;;;;;21.90;43.63;102081.97;2101598;28;47798;-56
2022/07/06 04:04:18;;;;;;;;;6.00;6.00;;;;;21.91;44.31;102086.41;2098713;27;47384;-56
2022/07/06 04:05:21;;;;;;;;;4.00;4.00;;;;;21.93;44.26;102083.63;2104227;27;47536;-54
2022/07/06 04:06:21;;;;;;;;;7.00;5.00;;;;;21.92;44.36;102085.47;2101445;27;47772;-55
2022/07/06 04:07:22;;;;;;;;;6.25;6.25;;;;;21.93;44.04;102084.50;2104680;28;47870;-51
2022/07/06 04:08:22;;;;;;;;;6.25;6.25;;;;;21.92;44.49;102081.88;2097949;27;48097;-55
2022/07/06 04:09:22;;;;;;;;;5.50;4.00;;;;;21.90;44.16;102087.38;2102260;28;47735;-53
2022/07/06 04:10:23;;;;;;;;;7.00;6.50;;;;;21.89;43.93;102091.03;2101810;27;48019;-54
2022/07/06 04:11:23;;;;;;;;;8.00;7.00;;;;;21.89;43.88;102082.91;2086065;28;47303;-54
2022/07/06 04:12:24;;;;;;;;;5.75;5.75;;;;;21.90;44.09;102086.50;2085783;28;47900;-54
2022/07/06 04:13:25;;;;;;;;;4.50;4.50;;;;;21.90;43.95;102095.47;2104166;27;47777;-54
2022/07/06 04:14:27;;;;;;;;;5.40;5.40;;;;;21.92;44.23;102090.00;2096738;27;47957;-52
2022/07/06 04:15:27;;;;;;;;;6.20;4.80;;;;;21.92;44.34;102090.88;2105185;27;47742;-54
2022/07/06 04:16:27;;;;;;;;;6.00;6.00;;;;;21.93;44.13;102095.31;2098626;27;48015;-55
2022/07/06 04:18:47;;;;;;;;;4.20;4.20;;;;;21.95;44.54;102096.13;2085568;28;47569;-55
2022/07/06 04:19:47;;;;;;;;;7.75;6.25;;;;;21.94;44.07;102097.06;2091557;28;47220;-55
2022/07/06 04:20:48;;;;;;;;;7.00;7.00;;;;;21.95;44.07;102092.53;2104398;28;47662;-53
2022/07/06 04:21:48;;;;;;;;;7.75;5.25;;;;;21.95;44.62;102095.25;2105739;27;47553;-54
2022/07/06 04:22:49;;;;;;;;;7.00;7.00;;;;;21.95;44.06;102101.53;2103964;28;47886;-55
2022/07/06 04:23:50;;;;;;;;;7.00;7.00;;;;;21.95;44.70;102090.72;2104021;28;48053;-53
2022/07/06 04:24:50;;;;;;;;;4.50;3.50;;;;;21.94;44.06;102088.97;2103984;28;48017;-55
2022/07/06 04:25:51;;;;;;;;;8.50;8.00;;;;;21.94;44.22;102091.66;2103342;28;47763;-56
2022/07/06 04:26:51;;;;;;;;;5.75;5.75;;;;;21.96;44.23;102092.47;2100045;28;47576;-52
2022/07/06 04:27:51;;;;;;;;;5.00;5.00;;;;;21.97;44.07;102088.81;2104360;28;47377;-55
2022/07/06 04:28:52;;;;;;;;;7.50;6.00;;;;;21.98;44.14;102082.50;2092102;28;47940;-56
2022/07/06 04:29:53;;;;;;;;;5.75;4.75;;;;;21.99;44.68;102092.34;2086973;28;47448;-55
2022/07/06 04:30:53;;;;;;;;;6.67;5.67;;;;;21.99;44.15;102092.34;2103616;28;47458;-54
2022/07/06 04:31:53;;;;;;;;;10.75;7.50;;;;;22.00;44.57;102094.09;2104349;28;47463;-56
2022/07/06 04:32:55;;;;;;;;;6.25;6.25;;;;;22.01;44.67;102090.44;2104114;28;47503;-57
2022/07/06 04:33:55;;;;;;;;;7.60;7.60;;;;;22.01;44.34;102095.84;2104069;28;47419;-56
2022/07/06 04:34:56;;;;;;;;;4.25;4.25;;;;;22.02;44.01;102096.72;2103893;28;47245;-57
2022/07/06 04:35:56;;;;;;;;;5.50;5.50;;;;;22.02;44.60;102086.78;2098095;28;47452;-54
2022/07/06 04:36:56;;;;;;;;;5.25;5.25;;;;;22.01;44.08;102084.16;2100427;28;47533;-55
2022/07/06 04:37:57;;;;;;;;;7.00;6.25;;;;;22.00;44.00;102087.81;2103829;28;47601;-56
2022/07/06 04:38:57;;;;;;;;;6.75;6.50;;;;;22.00;44.03;102096.81;2104141;28;47417;-55
2022/07/06 04:39:58;;;;;;;;;8.75;7.25;;;;;21.98;44.36;102090.59;2104045;28;48025;-55
2022/07/06 04:40:58;;;;;;;;;6.00;6.00;;;;;21.94;44.33;102088.09;2104186;28;46996;-56
2022/07/06 04:41:58;;;;;;;;;6.25;6.25;;;;;21.90;44.63;102083.78;2103924;28;47808;-54
2022/07/06 04:42:59;;;;;;;;;6.00;6.00;;;;;21.86;44.48;102080.38;2104129;28;47431;-55
2022/07/06 04:43:59;;;;;;;;;6.75;6.50;;;;;21.83;44.33;102083.19;2104010;28;47639;-56
2022/07/06 04:45:00;;;;;;;;;5.50;5.50;;;;;21.81;44.79;102090.50;2103664;28;47725;-56
2022/07/06 04:46:01;;;;;;;;;7.00;7.00;;;;;21.78;44.68;102085.25;2102921;28;48035;-56
2022/07/06 04:47:01;;;;;;;;;7.00;7.00;;;;;21.76;45.04;102089.84;2103898;28;48168;-55